Time;durP1;ratioP1;P1;durP2;ratioP2;P2;SDS_P1;SDS_P2;PMS_P1;PMS_P2;Temp;Humidity;BMP_temperature;BMP_pressure;BME280_temperature;BME280_humidity;BME280_pressure;Samples;Min_cycle;Max_cycle;Signal;HPM_P1;HPM_P2
2021/09/24 00:00:29;;;;;;;8.02;2.10;;;18.30;74.70;;;;;;5076260;28;20376;-70
2021/09/24 00:02:56;;;;;;;8.48;2.03;;;18.30;74.70;;;;;;5093755;28;20052;-69
2021/09/24 00:05:22;;;;;;;7.18;1.85;;;18.20;74.50;;;;;;5095757;28;20036;-70
2021/09/24 00:07:48;;;;;;;13.45;2.63;;;18.30;74.60;;;;;;5096176;28;20137;-71
2021/09/24 00:10:17;;;;;;;13.52;2.38;;;18.20;74.60;;;;;;5096106;28;20109;-69
2021/09/24 00:12:43;;;;;;;8.25;2.00;;;18.20;74.70;;;;;;5095832;28;20115;-69
2021/09/24 00:15:14;;;;;;;8.15;2.13;;;18.20;74.70;;;;;;5095777;28;20139;-70
2021/09/24 00:17:40;;;;;;;6.18;1.73;;;18.20;74.70;;;;;;5078250;28;20059;-69
2021/09/24 00:20:07;;;;;;;11.65;2.15;;;18.20;74.70;;;;;;5095958;28;20356;-70
2021/09/24 00:22:33;;;;;;;7.03;1.75;;;18.30;74.90;;;;;;5096301;28;20050;-69
2021/09/24 00:24:59;;;;;;;9.35;2.38;;;18.20;74.80;;;;;;5095509;28;20122;-70
2021/09/24 00:27:25;;;;;;;8.27;1.80;;;18.20;74.60;;;;;;5095562;28;20459;-69
2021/09/24 00:29:50;;;;;;;7.35;2.05;;;18.20;74.70;;;;;;5095878;28;20117;-68
2021/09/24 00:32:16;;;;;;;9.73;2.10;;;18.30;74.80;;;;;;5095416;28;20467;-71
2021/09/24 00:35:16;;;;;;;12.90;2.85;;;18.30;74.70;;;;;;5095424;28;20196;-69
2021/09/24 00:37:41;;;;;;;9.00;1.77;;;18.20;74.80;;;;;;5077688;28;20044;-70
2021/09/24 00:40:08;;;;;;;8.07;2.05;;;18.20;74.70;;;;;;5095803;28;20051;-70
2021/09/24 00:42:35;;;;;;;7.95;1.50;;;18.30;74.80;;;;;;5095304;28;20040;-69
2021/09/24 00:45:01;;;;;;;8.52;1.77;;;18.30;74.90;;;;;;5094961;28;20040;-69
2021/09/24 00:47:27;;;;;;;8.15;1.90;;;18.20;74.90;;;;;;5074149;28;20064;-69
2021/09/24 00:49:53;;;;;;;11.15;2.03;;;18.20;74.90;;;;;;5074631;28;20075;-70
2021/09/24 00:52:20;;;;;;;10.65;2.42;;;18.30;75.00;;;;;;5075776;28;20044;-71
2021/09/24 00:54:48;;;;;;;7.97;1.55;;;18.30;74.90;;;;;;5074793;28;20045;-70
2021/09/24 00:57:14;;;;;;;8.13;1.80;;;18.30;75.00;;;;;;5074330;28;20045;-69
2021/09/24 00:59:41;;;;;;;7.25;2.05;;;18.20;74.90;;;;;;5075501;28;20071;-70
2021/09/24 01:02:07;;;;;;;5.75;1.70;;;18.30;75.00;;;;;;5074562;28;20036;-69
2021/09/24 01:04:33;;;;;;;9.05;1.85;;;18.30;75.00;;;;;;5074346;28;20124;-69
2021/09/24 01:07:00;;;;;;;7.95;2.05;;;18.30;75.00;;;;;;5074618;28;20166;-70
2021/09/24 01:09:26;;;;;;;8.27;1.77;;;18.20;74.90;;;;;;5074522;28;20044;-70
2021/09/24 01:11:52;;;;;;;8.15;1.65;;;18.30;75.10;;;;;;5073650;28;20154;-69
2021/09/24 01:14:18;;;;;;;6.93;1.90;;;18.30;75.00;;;;;;5074814;28;20329;-69
2021/09/24 01:16:44;;;;;;;7.85;1.50;;;18.20;75.00;;;;;;5074447;28;20040;-70
2021/09/24 01:19:10;;;;;;;7.43;1.90;;;18.30;75.10;;;;;;5074764;28;20046;-69
2021/09/24 01:21:41;;;;;;;9.07;2.15;;;18.30;75.10;;;;;;5074024;28;20394;-69
2021/09/24 01:24:07;;;;;;;7.65;1.75;;;18.30;75.20;;;;;;5073919;28;20061;-70
2021/09/24 01:26:33;;;;;;;6.65;1.85;;;18.30;75.10;;;;;;5074670;28;20040;-70
2021/09/24 01:28:59;;;;;;;9.15;1.88;;;18.30;75.20;;;;;;5074855;28;20127;-69
2021/09/24 01:31:26;;;;;;;6.45;1.67;;;18.30;75.20;;;;;;5074981;28;20504;-71
2021/09/24 01:33:52;;;;;;;8.93;2.05;;;18.30;75.20;;;;;;5070415;28;20052;-69
2021/09/24 01:36:18;;;;;;;9.00;1.90;;;18.30;75.20;;;;;;5055217;28;20101;-70
2021/09/24 01:38:44;;;;;;;7.78;1.75;;;18.30;75.20;;;;;;5054509;28;20348;-70
2021/09/24 01:41:10;;;;;;;9.07;1.80;;;18.30;75.20;;;;;;5053882;28;20053;-69
2021/09/24 01:43:37;;;;;;;7.60;1.85;;;18.30;75.30;;;;;;5053586;28;20041;-70
2021/09/24 01:46:04;;;;;;;9.57;2.15;;;18.20;75.20;;;;;;5054397;28;20123;-70
2021/09/24 01:48:30;;;;;;;11.20;2.13;;;18.20;75.30;;;;;;5070765;28;20052;-69
2021/09/24 01:50:55;;;;;;;3.50;1.17;;;18.20;75.30;;;;;;5074679;28;20051;-70
2021/09/24 01:53:21;;;;;;;7.57;2.10;;;18.20;75.30;;;;;;5074768;28;20048;-69
2021/09/24 01:55:47;;;;;;;8.52;1.90;;;18.20;75.40;;;;;;5075455;28;20044;-69
2021/09/24 01:58:13;;;;;;;6.95;1.70;;;18.20;75.50;;;;;;5078299;28;20420;-69
2021/09/24 02:00:39;;;;;;;9.15;1.90;;;18.30;75.50;;;;;;5078054;28;20090;-71
2021/09/24 02:03:05;;;;;;;9.27;1.90;;;18.20;75.50;;;;;;5092552;28;20079;-69
2021/09/24 02:05:31;;;;;;;9.88;1.75;;;18.30;75.60;;;;;;5079447;28;20079;-70
2021/09/24 02:07:57;;;;;;;7.53;1.50;;;18.30;75.50;;;;;;5097680;28;20076;-69
2021/09/24 02:10:23;;;;;;;5.60;1.83;;;18.30;75.60;;;;;;5079787;28;20054;-69
2021/09/24 02:12:48;;;;;;;10.60;2.13;;;18.30;75.60;;;;;;5098028;28;20036;-69
2021/09/24 02:15:15;;;;;;;10.80;2.20;;;18.30;75.60;;;;;;5080366;28;20044;-69
2021/09/24 02:17:41;;;;;;;8.85;1.90;;;18.30;75.70;;;;;;5098440;28;20043;-70
2021/09/24 02:20:08;;;;;;;8.02;2.30;;;18.20;75.60;;;;;;5097774;28;20036;-69
2021/09/24 02:22:36;;;;;;;6.80;1.65;;;18.20;75.70;;;;;;5097808;28;20058;-69
2021/09/24 02:25:02;;;;;;;7.80;1.60;;;18.20;75.80;;;;;;5080243;28;20074;-70
2021/09/24 02:27:28;;;;;;;6.88;1.67;;;18.20;75.80;;;;;;5097668;28;20051;-69
2021/09/24 02:29:53;;;;;;;9.30;1.73;;;18.20;75.80;;;;;;5080273;28;20343;-69
2021/09/24 02:32:19;;;;;;;11.07;1.73;;;18.20;75.80;;;;;;5098381;28;20043;-69
2021/09/24 02:34:45;;;;;;;8.93;1.95;;;18.20;75.80;;;;;;5097736;28;20040;-70
2021/09/24 02:37:10;;;;;;;6.43;1.70;;;18.30;75.90;;;;;;5076145;28;20049;-70
2021/09/24 02:39:36;;;;;;;5.97;1.52;;;18.20;75.80;;;;;;5077187;28;20041;-69
2021/09/24 02:42:02;;;;;;;6.38;1.30;;;18.20;76.40;;;;;;5078162;28;20044;-70
2021/09/24 02:44:28;;;;;;;8.15;1.85;;;18.30;76.00;;;;;;5077032;28;20040;-70
2021/09/24 02:46:54;;;;;;;7.10;1.35;;;18.20;76.00;;;;;;5060238;28;20049;-71
2021/09/24 02:49:19;;;;;;;6.85;1.58;;;18.20;75.90;;;;;;5059590;28;20072;-70
2021/09/24 02:51:45;;;;;;;13.02;2.17;;;18.20;76.00;;;;;;5076749;28;20044;-70
2021/09/24 02:54:11;;;;;;;6.47;1.42;;;18.20;76.00;;;;;;5059499;28;20106;-69
2021/09/24 02:56:37;;;;;;;5.88;1.95;;;18.20;76.10;;;;;;5076971;28;20139;-70
2021/09/24 02:59:02;;;;;;;6.05;1.42;;;18.20;76.10;;;;;;5076970;28;20044;-70
2021/09/24 03:01:28;;;;;;;6.10;1.35;;;18.20;76.00;;;;;;5079849;28;20044;-69
2021/09/24 03:03:54;;;;;;;8.90;1.70;;;18.10;76.10;;;;;;5097109;28;20490;-69
2021/09/24 03:06:20;;;;;;;6.45;1.20;;;18.10;76.20;;;;;;5096711;28;20119;-70
2021/09/24 03:08:45;;;;;;;5.28;1.20;;;18.20;76.80;;;;;;5096597;28;20135;-70
2021/09/24 03:11:11;;;;;;;6.40;1.23;;;18.20;76.30;;;;;;5096995;28;20427;-70
2021/09/24 03:13:37;;;;;;;9.77;1.63;;;18.20;76.30;;;;;;5079299;28;20086;-70
2021/09/24 03:16:03;;;;;;;7.90;2.00;;;18.20;76.30;;;;;;5096998;28;20048;-69
2021/09/24 03:18:28;;;;;;;6.63;1.35;;;18.20;76.40;;;;;;5096668;28;20073;-71
2021/09/24 03:20:54;;;;;;;11.60;2.17;;;18.20;76.40;;;;;;5095605;28;20080;-70
2021/09/24 03:23:20;;;;;;;4.78;1.00;;;18.20;76.40;;;;;;5096498;28;20047;-69
2021/09/24 03:25:48;;;;;;;6.47;1.38;;;18.20;76.40;;;;;;5076333;28;20045;-69
2021/09/24 03:28:14;;;;;;;6.32;1.52;;;18.20;76.40;;;;;;5076850;28;20432;-70
2021/09/24 03:30:40;;;;;;;6.90;1.40;;;18.20;76.50;;;;;;5075918;28;20513;-70
2021/09/24 03:33:06;;;;;;;4.47;1.15;;;18.20;76.50;;;;;;5092283;28;20044;-70
2021/09/24 03:35:32;;;;;;;9.68;1.20;;;18.20;76.50;;;;;;5095917;28;20047;-70
2021/09/24 03:37:57;;;;;;;6.85;1.13;;;18.20;76.50;;;;;;5096351;28;20044;-69
2021/09/24 03:40:23;;;;;;;5.82;2.00;;;18.20;76.50;;;;;;5096615;28;20072;-70
2021/09/24 03:42:49;;;;;;;7.30;1.80;;;18.10;76.50;;;;;;5096355;28;20040;-69
2021/09/24 03:45:15;;;;;;;8.07;1.80;;;18.20;76.60;;;;;;5096180;28;20101;-70
2021/09/24 03:47:41;;;;;;;5.53;1.40;;;18.20;76.50;;;;;;5078188;28;20113;-70
2021/09/24 03:50:08;;;;;;;7.57;1.95;;;18.20;76.50;;;;;;5095987;28;20098;-70
2021/09/24 03:52:34;;;;;;;6.60;1.58;;;18.20;76.50;;;;;;5096107;28;20481;-69
2021/09/24 03:55:01;;;;;;;6.85;1.58;;;18.20;76.60;;;;;;5096210;28;20044;-70
2021/09/24 03:57:27;;;;;;;5.45;1.33;;;18.20;76.60;;;;;;5095862;28;20508;-69
2021/09/24 03:59:53;;;;;;;7.72;1.85;;;18.20;76.50;;;;;;5094350;28;20043;-71
2021/09/24 04:02:18;;;;;;;4.25;1.23;;;18.30;76.60;;;;;;5095381;28;20320;-69
2021/09/24 04:04:44;;;;;;;5.85;1.30;;;18.30;76.60;;;;;;5095352;28;20054;-69
2021/09/24 04:07:10;;;;;;;5.60;1.10;;;18.20;76.60;;;;;;5096000;28;20040;-70
2021/09/24 04:09:36;;;;;;;4.60;1.08;;;18.30;76.60;;;;;;5095450;28;20096;-70
2021/09/24 04:12:03;;;;;;;6.63;1.10;;;18.20;76.60;;;;;;5078105;28;20054;-69
2021/09/24 04:14:28;;;;;;;5.53;1.42;;;18.20;76.60;;;;;;5096144;28;20357;-70
2021/09/24 04:16:54;;;;;;;7.30;1.55;;;18.30;76.60;;;;;;5091743;28;20073;-70
2021/09/24 04:19:21;;;;;;;6.28;1.60;;;18.30;76.60;;;;;;5077669;28;20412;-70
2021/09/24 04:21:47;;;;;;;4.25;1.15;;;18.30;76.60;;;;;;5095795;28;20051;-69
2021/09/24 04:24:13;;;;;;;6.15;1.33;;;18.30;76.60;;;;;;5092193;28;20043;-69
2021/09/24 04:26:39;;;;;;;5.85;1.33;;;18.30;77.20;;;;;;5095741;28;20101;-69
2021/09/24 04:29:05;;;;;;;6.18;0.90;;;18.30;76.60;;;;;;5095541;28;20044;-68
2021/09/24 04:31:31;;;;;;;6.60;1.13;;;18.30;76.60;;;;;;5095485;28;20122;-73
2021/09/24 04:33:57;;;;;;;9.68;1.70;;;18.30;76.50;;;;;;5077356;28;20119;-68
2021/09/24 04:36:23;;;;;;;3.90;1.13;;;18.30;76.50;;;;;;5095278;28;20051;-71
2021/09/24 04:38:48;;;;;;;4.28;1.10;;;18.30;76.50;;;;;;5095604;28;20055;-73
2021/09/24 04:41:14;;;;;;;6.97;1.30;;;18.40;76.60;;;;;;5096076;28;20470;-70
2021/09/24 04:43:40;;;;;;;6.75;1.00;;;18.40;76.60;;;;;;5077720;28;20075;-75
2021/09/24 04:46:06;;;;;;;10.32;1.50;;;18.40;76.70;;;;;;5077647;28;20086;-71
2021/09/24 04:48:32;;;;;;;8.43;1.27;;;18.40;77.00;;;;;;5077954;28;20098;-69
2021/09/24 04:50:58;;;;;;;8.43;1.35;;;18.40;77.00;;;;;;5078149;28;20048;-72
2021/09/24 04:53:24;;;;;;;9.25;1.77;;;18.40;77.00;;;;;;5095554;28;20043;-72
2021/09/24 04:55:50;;;;;;;11.65;1.73;;;18.40;77.10;;;;;;5095107;28;20048;-71
2021/09/24 04:58:15;;;;;;;5.45;1.42;;;18.40;77.10;;;;;;5095083;28;20044;-72
2021/09/24 05:00:41;;;;;;;7.40;1.63;;;18.40;77.00;;;;;;5095006;28;20090;-72
2021/09/24 05:03:07;;;;;;;8.82;1.95;;;18.50;77.00;;;;;;5094824;28;20458;-71
2021/09/24 05:05:32;;;;;;;11.35;1.70;;;18.40;77.00;;;;;;5095463;28;20154;-72
2021/09/24 05:07:58;;;;;;;8.65;2.10;;;18.50;77.00;;;;;;5095283;28;20036;-71
2021/09/24 05:10:24;;;;;;;9.57;2.10;;;18.50;77.00;;;;;;5095169;28;20148;-72
2021/09/24 05:12:50;;;;;;;7.43;2.08;;;18.50;76.90;;;;;;5095442;28;20424;-70
2021/09/24 05:15:15;;;;;;;10.38;2.72;;;18.60;76.90;;;;;;5078034;28;20044;-72
2021/09/24 05:17:41;;;;;;;7.28;2.50;;;18.50;76.90;;;;;;5094892;28;20044;-71
2021/09/24 05:20:07;;;;;;;9.85;2.00;;;18.50;76.90;;;;;;5095111;28;20035;-71
2021/09/24 05:22:33;;;;;;;7.05;1.60;;;18.60;77.00;;;;;;5094776;28;20122;-70
2021/09/24 05:24:59;;;;;;;7.07;2.20;;;18.60;76.90;;;;;;5095206;28;20158;-71
2021/09/24 05:27:24;;;;;;;8.02;1.83;;;18.60;76.80;;;;;;5094930;28;20036;-71
2021/09/24 05:29:50;;;;;;;7.97;1.60;;;18.60;76.80;;;;;;5095179;28;20048;-74
2021/09/24 05:32:17;;;;;;;10.57;2.10;;;18.60;76.80;;;;;;5076653;28;20494;-69
2021/09/24 05:34:43;;;;;;;10.20;2.35;;;18.60;76.80;;;;;;5078381;28;20056;-70
2021/09/24 05:37:09;;;;;;;6.22;1.67;;;18.60;76.70;;;;;;5078990;28;20098;-71
2021/09/24 05:39:35;;;;;;;9.07;2.28;;;18.60;76.70;;;;;;5078556;28;20036;-74
2021/09/24 05:42:01;;;;;;;13.40;3.10;;;18.60;76.70;;;;;;5060817;28;20041;-69
2021/09/24 05:44:27;;;;;;;13.93;2.33;;;18.60;77.00;;;;;;5078168;28;20062;-73
2021/09/24 05:46:52;;;;;;;7.72;2.17;;;18.50;77.20;;;;;;5077766;28;20040;-70
2021/09/24 05:49:18;;;;;;;11.85;2.30;;;18.50;77.40;;;;;;5060392;28;20129;-69
2021/09/24 05:51:44;;;;;;;11.32;2.80;;;18.40;77.80;;;;;;5097899;28;20039;-69
2021/09/24 05:54:10;;;;;;;11.82;2.85;;;18.40;78.10;;;;;;5081390;28;20090;-69
2021/09/24 05:56:36;;;;;;;17.65;3.15;;;18.40;78.20;;;;;;5097669;28;20375;-69
2021/09/24 05:59:01;;;;;;;15.48;2.97;;;18.40;78.30;;;;;;5098149;28;20432;-69
2021/09/24 06:01:27;;;;;;;11.45;2.45;;;18.40;78.30;;;;;;5097758;28;20048;-70
2021/09/24 06:03:54;;;;;;;12.27;3.20;;;18.40;78.50;;;;;;5076586;28;20049;-69
2021/09/24 06:06:21;;;;;;;12.77;2.90;;;18.30;78.50;;;;;;5060776;28;20085;-74
2021/09/24 06:08:50;;;;;;;15.98;3.63;;;18.30;78.80;;;;;;5078889;28;20442;-71
2021/09/24 06:11:17;;;;;;;20.55;4.03;;;18.40;78.60;;;;;;5097666;28;20051;-78
2021/09/24 06:13:43;;;;;;;17.27;3.97;;;18.50;78.40;;;;;;5098161;28;20440;-68
2021/09/24 06:16:09;;;;;;;18.13;3.80;;;18.50;78.30;;;;;;5096939;28;20039;-72
2021/09/24 06:18:35;;;;;;;15.27;3.70;;;18.50;78.00;;;;;;5092731;28;20079;-72
2021/09/24 06:21:02;;;;;;;11.98;3.50;;;18.50;77.80;;;;;;5097750;28;20160;-72
2021/09/24 06:23:29;;;;;;;15.32;5.50;;;18.50;77.90;;;;;;5080068;28;20044;-70
2021/09/24 06:25:55;;;;;;;15.15;4.82;;;18.50;77.80;;;;;;5080187;28;20091;-69
2021/09/24 06:28:21;;;;;;;12.50;4.18;;;18.50;78.00;;;;;;5076557;28;20040;-70
2021/09/24 06:30:47;;;;;;;13.02;3.70;;;18.50;78.20;;;;;;5077156;28;20432;-71
2021/09/24 06:33:12;;;;;;;14.10;3.97;;;18.40;78.50;;;;;;5091497;28;20058;-76
2021/09/24 06:35:38;;;;;;;14.40;3.55;;;18.40;78.50;;;;;;5097578;28;20044;-72
2021/09/24 06:38:04;;;;;;;24.95;5.13;;;18.40;78.40;;;;;;5097464;28;20058;-72
2021/09/24 06:40:30;;;;;;;22.92;4.47;;;18.40;78.30;;;;;;5097661;28;20073;-72
2021/09/24 06:42:55;;;;;;;24.50;4.95;;;18.40;78.50;;;;;;5097235;28;20040;-72
2021/09/24 06:45:21;;;;;;;14.98;3.97;;;18.40;78.40;;;;;;5097325;28;20044;-73
2021/09/24 06:47:47;;;;;;;22.40;4.65;;;18.40;78.20;;;;;;5096951;28;20566;-71
2021/09/24 06:50:13;;;;;;;14.20;3.88;;;18.30;78.10;;;;;;5097237;28;20312;-71
2021/09/24 06:52:39;;;;;;;13.10;3.65;;;18.40;78.20;;;;;;5097257;28;20082;-71
2021/09/24 06:55:06;;;;;;;14.75;4.03;;;18.40;78.00;;;;;;5097421;28;20124;-71
2021/09/24 06:57:32;;;;;;;13.65;3.70;;;18.40;77.90;;;;;;5096841;28;20126;-70
2021/09/24 06:59:58;;;;;;;13.45;3.85;;;18.40;77.90;;;;;;5096850;28;20067;-71
2021/09/24 07:02:24;;;;;;;10.85;4.00;;;18.40;77.80;;;;;;5096646;28;20120;-70
2021/09/24 07:04:49;;;;;;;14.35;3.45;;;18.40;77.80;;;;;;5096360;28;20035;-71
2021/09/24 07:07:15;;;;;;;15.18;3.92;;;18.40;77.70;;;;;;5096687;28;20054;-71
2021/09/24 07:09:41;;;;;;;10.02;3.50;;;18.50;77.60;;;;;;5096981;28;20036;-71
2021/09/24 07:12:07;;;;;;;13.50;3.88;;;18.50;77.50;;;;;;5078975;28;20036;-71
2021/09/24 07:14:33;;;;;;;13.48;4.00;;;18.50;77.60;;;;;;5096522;28;20444;-70
2021/09/24 07:16:59;;;;;;;15.80;4.80;;;18.50;77.50;;;;;;5079331;28;20125;-77
2021/09/24 07:19:26;;;;;;;10.57;4.18;;;18.50;77.40;;;;;;5096556;28;20109;-75
2021/09/24 07:21:52;;;;;;;12.20;4.60;;;18.60;77.40;;;;;;5078772;28;20126;-76
2021/09/24 07:24:18;;;;;;;12.75;4.82;;;18.50;77.30;;;;;;5096471;28;20123;-77
2021/09/24 07:26:45;;;;;;;15.10;5.38;;;18.50;77.40;;;;;;5096997;28;20407;-75
2021/09/24 07:29:11;;;;;;;16.55;4.97;;;18.40;77.40;;;;;;5096456;28;20095;-70
2021/09/24 07:31:37;;;;;;;15.50;4.40;;;18.40;77.50;;;;;;5096689;28;20043;-69
2021/09/24 07:34:03;;;;;;;11.23;3.70;;;18.40;77.70;;;;;;5096643;28;20494;-70
2021/09/24 07:36:29;;;;;;;16.75;4.15;;;18.40;77.70;;;;;;5096425;28;20415;-70
2021/09/24 07:38:55;;;;;;;13.65;3.85;;;18.40;77.80;;;;;;5096205;28;20389;-70
2021/09/24 07:41:22;;;;;;;10.35;3.60;;;18.40;77.80;;;;;;5096299;28;20498;-70
2021/09/24 07:43:49;;;;;;;12.18;3.97;;;18.40;77.80;;;;;;5078182;28;20044;-67
2021/09/24 07:46:16;;;;;;;11.68;3.97;;;18.40;77.80;;;;;;5095962;28;20040;-68
2021/09/24 07:48:42;;;;;;;14.02;4.15;;;18.40;77.80;;;;;;5096690;28;20110;-67
2021/09/24 07:51:09;;;;;;;8.65;3.70;;;18.40;77.90;;;;;;5096254;28;20059;-67
2021/09/24 07:53:35;;;;;;;9.27;3.50;;;18.40;77.90;;;;;;5095635;28;20327;-67
2021/09/24 07:56:02;;;;;;;9.00;3.38;;;18.40;77.80;;;;;;5095985;28;20097;-67
2021/09/24 07:58:27;;;;;;;8.35;3.30;;;18.40;77.90;;;;;;5095826;28;20050;-68
2021/09/24 08:00:53;;;;;;;10.65;3.72;;;18.40;77.90;;;;;;5096157;28;20123;-68
2021/09/24 08:03:20;;;;;;;11.45;3.97;;;18.40;77.80;;;;;;5095465;28;20051;-67
2021/09/24 08:05:45;;;;;;;9.80;3.17;;;18.40;77.80;;;;;;5096692;28;20035;-67
2021/09/24 08:08:11;;;;;;;11.20;3.65;;;18.40;77.80;;;;;;5096026;28;20121;-67
2021/09/24 08:10:37;;;;;;;6.95;3.03;;;18.40;77.90;;;;;;5095703;28;20105;-68
2021/09/24 08:13:04;;;;;;;13.07;4.32;;;18.40;77.80;;;;;;5095852;28;20036;-68
2021/09/24 08:15:31;;;;;;;8.32;3.40;;;18.40;77.80;;;;;;5095703;28;20114;-67
2021/09/24 08:17:56;;;;;;;10.38;3.83;;;18.40;77.80;;;;;;5078224;28;20076;-67
2021/09/24 08:20:22;;;;;;;10.23;3.83;;;18.40;77.80;;;;;;5095836;28;20079;-67
2021/09/24 08:22:48;;;;;;;13.35;3.72;;;18.40;77.90;;;;;;5095824;28;20043;-69
2021/09/24 08:25:17;;;;;;;7.25;2.70;;;18.40;78.00;;;;;;5096361;28;20032;-67
2021/09/24 08:27:43;;;;;;;10.43;3.90;;;18.40;78.00;;;;;;5095092;28;20052;-70
2021/09/24 08:30:12;;;;;;;9.35;3.45;;;18.40;78.00;;;;;;5095764;28;20043;-70
2021/09/24 08:32:38;;;;;;;10.23;3.45;;;18.40;78.00;;;;;;5095295;28;20059;-69
2021/09/24 08:35:06;;;;;;;8.55;4.05;;;18.40;78.00;;;;;;5095154;28;20044;-69
2021/09/24 08:37:31;;;;;;;13.43;3.58;;;18.40;78.00;;;;;;5096194;28;20369;-69
2021/09/24 08:39:57;;;;;;;12.93;3.30;;;18.40;78.00;;;;;;5095646;28;20051;-70
2021/09/24 08:42:23;;;;;;;8.60;3.13;;;18.40;78.00;;;;;;5095016;28;20036;-69
2021/09/24 08:44:49;;;;;;;12.18;3.50;;;18.50;78.10;;;;;;5095210;28;20036;-69
2021/09/24 08:47:16;;;;;;;7.47;3.15;;;18.40;78.00;;;;;;5095015;28;20056;-70
2021/09/24 08:49:44;;;;;;;8.75;3.15;;;18.40;78.00;;;;;;5095068;28;20044;-70
2021/09/24 08:52:10;;;;;;;6.90;3.20;;;18.40;78.00;;;;;;5095166;28;20079;-70
2021/09/24 08:54:36;;;;;;;9.68;3.78;;;18.40;78.10;;;;;;5095191;28;20048;-70
2021/09/24 08:57:02;;;;;;;9.98;3.50;;;18.40;78.30;;;;;;5094915;28;20119;-69
2021/09/24 08:59:29;;;;;;;10.38;3.72;;;18.40;78.40;;;;;;5094925;28;20451;-70
2021/09/24 09:02:04;;;;;;;8.20;3.17;;;18.40;78.30;;;;;;5095427;28;20355;-70
2021/09/24 09:04:48;;;;;;;8.88;3.28;;;18.40;78.40;;;;;;5095533;28;20032;-70
2021/09/24 09:07:17;;;;;;;9.05;3.85;;;18.40;78.40;;;;;;5099806;28;20047;-70
2021/09/24 09:09:46;;;;;;;10.30;3.40;;;18.40;78.30;;;;;;5099009;28;20444;-69
2021/09/24 09:12:18;;;;;;;10.05;3.45;;;18.40;78.90;;;;;;5099052;28;20051;-71
2021/09/24 09:15:00;;;;;;;9.43;3.40;;;18.40;78.50;;;;;;5082169;28;20428;-68
2021/09/24 09:17:40;;;;;;;9.40;3.75;;;18.50;78.20;;;;;;5081257;28;20044;-69
2021/09/24 09:20:30;;;;;;;10.25;4.03;;;18.50;78.30;;;;;;5099252;28;20051;-70
2021/09/24 09:22:59;;;;;;;10.85;4.10;;;18.50;78.10;;;;;;5081060;28;20113;-74
2021/09/24 09:25:33;;;;;;;14.30;4.55;;;18.60;78.70;;;;;;5080590;28;20043;-75
2021/09/24 09:28:05;;;;;;;10.70;4.35;;;18.60;79.00;;;;;;5098985;28;20052;-68
2021/09/24 09:30:33;;;;;;;10.70;3.70;;;18.60;79.50;;;;;;5099113;28;20044;-67
2021/09/24 09:32:59;;;;;;;9.65;3.83;;;18.60;79.20;;;;;;5098406;28;20032;-68
2021/09/24 09:35:26;;;;;;;11.57;3.67;;;18.50;79.20;;;;;;5098808;28;20343;-67
2021/09/24 09:37:52;;;;;;;13.20;3.60;;;18.50;79.20;;;;;;5098843;28;20036;-72
2021/09/24 09:40:21;;;;;;;13.43;4.20;;;18.50;79.30;;;;;;5080768;28;20040;-73
2021/09/24 09:42:49;;;;;;;12.45;4.18;;;18.60;79.50;;;;;;5098180;28;20044;-77
2021/09/24 09:45:18;;;;;;;10.98;3.67;;;18.60;79.60;;;;;;5098459;28;20047;-73
2021/09/24 09:47:47;;;;;;;8.90;3.53;;;18.60;79.80;;;;;;5077005;28;20114;-73
2021/09/24 09:50:21;;;;;;;13.23;3.95;;;18.60;79.70;;;;;;5077995;28;20429;-73
2021/09/24 09:52:56;;;;;;;10.27;3.90;;;18.60;79.60;;;;;;5078167;28;20071;-72
2021/09/24 09:55:27;;;;;;;12.10;4.50;;;18.70;79.70;;;;;;5077804;28;20501;-69
2021/09/24 09:57:59;;;;;;;9.63;3.33;;;18.70;79.70;;;;;;5078248;28;20080;-72
2021/09/24 10:00:29;;;;;;;10.30;3.22;;;18.70;79.60;;;;;;5076972;28;20099;-72
2021/09/24 10:03:03;;;;;;;10.80;3.15;;;18.70;79.50;;;;;;5077008;28;20068;-72
2021/09/24 10:05:35;;;;;;;8.63;3.25;;;18.70;79.50;;;;;;5077541;28;20051;-73
2021/09/24 10:08:27;;;;;;;11.18;4.07;;;18.70;79.40;;;;;;5077742;28;20055;-72
2021/09/24 10:10:56;;;;;;;9.43;3.22;;;18.70;79.30;;;;;;5077072;28;20112;-72
2021/09/24 10:13:26;;;;;;;12.95;3.65;;;18.70;79.40;;;;;;5076940;28;20423;-73
2021/09/24 10:15:52;;;;;;;12.82;3.72;;;18.70;79.30;;;;;;5077936;28;20049;-72
2021/09/24 10:18:18;;;;;;;9.98;3.10;;;18.80;79.30;;;;;;5075800;28;20057;-72
2021/09/24 10:20:47;;;;;;;10.07;3.08;;;18.70;79.20;;;;;;5077309;28;20072;-72
2021/09/24 10:23:13;;;;;;;10.35;3.25;;;18.80;79.20;;;;;;5077023;28;20044;-72
2021/09/24 10:25:41;;;;;;;8.02;3.50;;;18.80;79.20;;;;;;5076825;28;20044;-72
2021/09/24 10:28:10;;;;;;;8.32;3.20;;;18.80;79.20;;;;;;5077548;28;20388;-72
2021/09/24 10:30:37;;;;;;;10.45;3.10;;;18.80;79.20;;;;;;5077521;28;20087;-73
2021/09/24 10:33:13;;;;;;;11.05;3.13;;;18.80;79.20;;;;;;5077337;28;20100;-73
2021/09/24 10:35:52;;;;;;;9.68;3.10;;;18.80;79.20;;;;;;5076021;28;20181;-73
2021/09/24 10:38:20;;;;;;;11.93;2.90;;;18.90;79.10;;;;;;5077206;28;20075;-72
2021/09/24 10:41:15;;;;;;;9.60;3.00;;;18.90;79.20;;;;;;5077174;28;20136;-73
2021/09/24 10:43:48;;;;;;;10.90;3.45;;;18.90;79.00;;;;;;5063951;28;20055;-73
2021/09/24 10:46:34;;;;;;;7.40;2.90;;;18.90;79.10;;;;;;5077273;28;20145;-73
2021/09/24 10:49:12;;;;;;;7.85;2.70;;;18.90;78.80;;;;;;5097140;28;20063;-72
2021/09/24 10:51:44;;;;;;;7.40;3.03;;;18.90;79.00;;;;;;5097060;28;20043;-72
2021/09/24 10:54:21;;;;;;;8.52;2.60;;;18.90;78.90;;;;;;5097013;28;20036;-73
2021/09/24 10:57:04;;;;;;;7.50;2.47;;;18.90;78.70;;;;;;5097146;28;20051;-72
2021/09/24 10:59:33;;;;;;;7.70;2.47;;;18.90;78.50;;;;;;5097068;28;20047;-73
2021/09/24 11:02:00;;;;;;;7.30;2.50;;;18.90;78.60;;;;;;5096797;28;20304;-73
2021/09/24 11:04:58;;;;;;;8.75;2.42;;;18.90;78.30;;;;;;5096756;28;20043;-72
2021/09/24 11:07:31;;;;;;;6.55;2.70;;;19.00;77.90;;;;;;5041400;28;20056;-73
2021/09/24 11:09:57;;;;;;;8.50;2.58;;;19.00;77.70;;;;;;5096215;28;20052;-73
2021/09/24 11:12:24;;;;;;;7.75;2.22;;;18.90;77.50;;;;;;5096824;28;20365;-73
2021/09/24 11:15:07;;;;;;;7.70;2.63;;;19.00;77.30;;;;;;5096570;28;20112;-74
2021/09/24 11:17:46;;;;;;;6.55;2.60;;;19.00;77.00;;;;;;5096815;28;20051;-73
2021/09/24 11:20:36;;;;;;;9.32;2.70;;;19.00;76.80;;;;;;5096702;28;20032;-74
2021/09/24 11:23:34;;;;;;;9.85;2.50;;;19.00;77.30;;;;;;5078847;28;20047;-74
2021/09/24 11:26:12;;;;;;;6.20;2.45;;;19.00;77.20;;;;;;5096584;28;20044;-73
2021/09/24 11:28:39;;;;;;;8.98;2.78;;;19.00;77.10;;;;;;5096531;28;20052;-74
2021/09/24 11:31:05;;;;;;;6.75;2.45;;;19.00;77.10;;;;;;5096197;28;20097;-73
2021/09/24 11:33:49;;;;;;;7.32;2.30;;;19.00;77.10;;;;;;5095970;28;20051;-73
2021/09/24 11:36:34;;;;;;;;;;;19.00;77.10;;;;;;5096305;28;20123;-73
2021/09/24 11:39:04;;;;;;;9.23;2.40;;;19.00;77.30;;;;;;5095976;28;19922;-74
2021/09/24 11:41:30;;;;;;;7.50;2.83;;;19.00;77.40;;;;;;5096094;28;20051;-73
2021/09/24 11:43:56;;;;;;;8.63;3.13;;;19.00;77.30;;;;;;5096448;28;20335;-73
2021/09/24 11:46:26;;;;;;;9.60;2.83;;;19.10;77.10;;;;;;5096516;28;20150;-73
2021/09/24 11:48:52;;;;;;;11.45;3.47;;;19.10;77.00;;;;;;5095876;28;20475;-73
2021/09/24 11:51:21;;;;;;;9.00;3.53;;;19.10;77.00;;;;;;5096099;28;20044;-73
2021/09/24 11:53:52;;;;;;;8.18;2.88;;;19.10;76.80;;;;;;5095453;28;20402;-76
2021/09/24 11:56:50;;;;;;;9.27;2.97;;;19.10;76.80;;;;;;5078675;28;20353;-69
2021/09/24 11:59:16;;;;;;;8.25;3.33;;;19.10;76.90;;;;;;5040562;28;20504;-68
2021/09/24 12:01:44;;;;;;;7.63;2.97;;;19.10;77.00;;;;;;5096089;28;20036;-69
2021/09/24 12:04:10;;;;;;;7.05;2.60;;;19.10;77.00;;;;;;5096642;28;20032;-69
2021/09/24 12:06:38;;;;;;;6.65;2.05;;;19.10;77.10;;;;;;5095684;28;20503;-69
2021/09/24 12:09:08;;;;;;;7.13;2.28;;;19.00;77.20;;;;;;5095359;28;20097;-69
2021/09/24 12:11:53;;;;;;;8.50;2.50;;;19.10;77.30;;;;;;5095618;28;20052;-69
2021/09/24 12:14:21;;;;;;;6.05;2.17;;;19.10;77.30;;;;;;5095327;28;20047;-69
2021/09/24 12:16:51;;;;;;;6.15;2.63;;;19.00;77.30;;;;;;5095410;28;20474;-69
2021/09/24 12:19:23;;;;;;;7.72;2.90;;;19.10;77.30;;;;;;5095529;28;20078;-69
2021/09/24 12:21:55;;;;;;;6.35;2.20;;;19.10;77.40;;;;;;5095457;28;20043;-69
2021/09/24 12:24:33;;;;;;;4.13;1.70;;;19.00;77.30;;;;;;5077663;28;20043;-69
2021/09/24 12:27:07;;;;;;;5.25;2.13;;;19.10;77.30;;;;;;5095327;28;20097;-69
2021/09/24 12:29:35;;;;;;;4.47;2.20;;;19.00;77.20;;;;;;5095125;28;20466;-75
2021/09/24 12:32:09;;;;;;;12.90;3.47;;;19.10;77.30;;;;;;5095818;28;20044;-76
2021/09/24 12:34:37;;;;;;;;;;;19.10;76.80;;;;;;5077987;28;20086;-81
2021/09/24 12:37:03;;;;;;;11.95;2.75;;;19.10;76.80;;;;;;5095722;28;19928;-73
2021/09/24 12:39:33;;;;;;;12.55;3.50;;;19.20;76.90;;;;;;5094555;28;20063;-75
2021/09/24 12:42:08;;;;;;;11.70;2.97;;;19.20;76.80;;;;;;5095990;28;20442;-74
2021/09/24 12:44:35;;;;;;;13.07;3.67;;;19.20;76.70;;;;;;5095005;28;20042;-75
2021/09/24 12:47:02;;;;;;;14.65;3.47;;;19.30;76.50;;;;;;5095098;28;20056;-79